Time;durP1;ratioP1;P1;durP2;ratioP2;P2;SDS_P1;SDS_P2;PMS_P1;PMS_P2;Temp;Humidity;BMP_temperature;BMP_pressure;BME280_temperature;BME280_humidity;BME280_pressure;Samples;Min_cycle;Max_cycle;Signal;HPM_P1;HPM_P2
2023/01/31 00:00:25;;;;;;;;;;;;;;;20.53;46.98;100853.31;5044870;28;3039;-60
2023/01/31 00:02:51;;;;;;;;;;;;;;;20.52;47.07;100855.41;5050209;28;3491;-61
2023/01/31 00:05:18;;;;;;;;;;;;;;;20.50;47.07;100856.09;5044113;28;3497;-61
2023/01/31 00:07:46;;;;;;;;;;;;;;;20.51;47.23;100857.56;5039661;28;3011;-61
2023/01/31 00:10:12;;;;;;;;;;;;;;;20.53;47.03;100861.94;5043394;28;2944;-61
2023/01/31 00:12:39;;;;;;;;;;;;;;;20.54;47.04;100849.03;5058623;28;3116;-61
2023/01/31 00:15:05;;;;;;;;;;;;;;;20.55;46.92;100862.00;5049208;28;3504;-61
2023/01/31 00:17:32;;;;;;;;;;;;;;;20.53;46.88;100868.44;5050538;28;2880;-61
2023/01/31 00:19:58;;;;;;;;;;;;;;;20.54;46.86;100872.03;5054120;28;2650;-61
2023/01/31 00:22:24;;;;;;;;;;;;;;;20.55;46.96;100879.25;5054733;28;2963;-61
2023/01/31 00:24:51;;;;;;;;;;;;;;;20.55;47.08;100879.25;5056099;28;2933;-60
2023/01/31 00:27:17;;;;;;;;;;;;;;;20.56;47.00;100881.53;5053238;28;3075;-60
2023/01/31 00:29:44;;;;;;;;;;;;;;;20.58;47.13;100889.53;5064745;28;2846;-60
2023/01/31 00:32:11;;;;;;;;;;;;;;;20.57;47.40;100888.78;5051688;28;2920;-60
2023/01/31 00:34:37;;;;;;;;;;;;;;;20.58;47.57;100901.03;5061426;28;2617;-61
2023/01/31 00:37:03;;;;;;;;;;;;;;;20.56;47.52;100898.03;5053340;28;2815;-61
2023/01/31 00:39:31;;;;;;;;;;;;;;;20.51;47.58;100903.59;5053867;28;2539;-61
2023/01/31 00:41:57;;;;;;;;;;;;;;;20.47;47.89;100909.16;5058101;28;2979;-61
2023/01/31 00:44:24;;;;;;;;;;;;;;;20.48;47.89;100918.53;5052394;28;2976;-61
2023/01/31 00:46:50;;;;;;;;;;;;;;;20.48;47.64;100921.41;5048370;28;2930;-61
2023/01/31 00:49:16;;;;;;;;;;;;;;;20.49;47.24;100923.63;5059946;28;2770;-61
2023/01/31 00:51:43;;;;;;;;;;;;;;;20.48;47.45;100922.16;5051553;28;3022;-61
2023/01/31 00:54:10;;;;;;;;;;;;;;;20.50;47.27;100919.38;5068761;28;2808;-61
2023/01/31 00:56:37;;;;;;;;;;;;;;;20.51;47.09;100937.38;5052911;28;2904;-61
2023/01/31 00:59:07;;;;;;;;;;;;;;;20.50;47.12;100935.88;5055294;28;2833;-61
2023/01/31 01:01:33;;;;;;;;;;;;;;;20.49;47.26;100935.13;5044669;28;2929;-61
2023/01/31 01:04:00;;;;;;;;;;;;;;;20.49;47.27;100946.63;5052665;28;2899;-61
2023/01/31 01:06:31;;;;;;;;;;;;;;;20.48;47.22;100950.91;5054546;28;2844;-61
2023/01/31 01:08:58;;;;;;;;;;;;;;;20.45;47.32;100952.19;5063621;28;2850;-61
2023/01/31 01:11:26;;;;;;;;;;;;;;;20.46;47.27;100958.72;5047705;28;2921;-61
2023/01/31 01:13:52;;;;;;;;;;;;;;;20.45;47.27;100952.19;5056270;28;2780;-61
2023/01/31 01:16:26;;;;;;;;;;;;;;;20.43;47.27;100951.34;5066924;28;3075;-61
2023/01/31 01:18:53;;;;;;;;;;;;;;;20.45;47.38;100963.69;5059930;28;3371;-61
2023/01/31 01:21:21;;;;;;;;;;;;;;;20.45;47.08;100962.97;5047015;28;2838;-61
2023/01/31 01:23:47;;;;;;;;;;;;;;;20.45;47.05;100969.44;5057016;28;2872;-61
2023/01/31 01:26:14;;;;;;;;;;;;;;;20.45;47.15;100975.19;5050720;28;2835;-61
2023/01/31 01:28:40;;;;;;;;;;;;;;;20.46;47.14;100970.22;5058311;28;2764;-61
2023/01/31 01:31:07;;;;;;;;;;;;;;;20.47;47.25;100968.81;5052533;28;2822;-61
2023/01/31 01:33:34;;;;;;;;;;;;;;;20.46;47.13;100976.72;5055075;28;2884;-61
2023/01/31 01:36:01;;;;;;;;;;;;;;;20.45;47.35;100974.47;5052930;28;2822;-61
2023/01/31 01:38:27;;;;;;;;;;;;;;;20.44;47.23;100979.47;5053772;28;2891;-61
2023/01/31 01:40:54;;;;;;;;;;;;;;;20.45;47.26;100980.22;5047738;28;2970;-61
2023/01/31 01:43:20;;;;;;;;;;;;;;;20.44;47.26;100979.47;5062846;28;2925;-61
2023/01/31 01:45:47;;;;;;;;;;;;;;;20.42;47.30;100982.25;5052874;28;3002;-61
2023/01/31 01:48:15;;;;;;;;;;;;;;;20.41;47.27;100966.41;5057748;28;3041;-61
2023/01/31 01:50:46;;;;;;;;;;;;;;;20.41;47.27;100980.03;5056514;28;2844;-61
2023/01/31 01:53:16;;;;;;;;;;;;;;;20.38;47.41;100990.69;5049750;28;2942;-61
2023/01/31 01:55:43;;;;;;;;;;;;;;;20.38;47.54;100992.81;5053077;28;2984;-61
2023/01/31 01:58:11;;;;;;;;;;;;;;;20.36;47.35;101004.97;5064522;28;3011;-61
2023/01/31 02:00:37;;;;;;;;;;;;;;;20.36;47.44;101007.84;5052440;28;2901;-61
2023/01/31 02:03:04;;;;;;;;;;;;;;;20.34;47.39;101002.00;5053832;28;2662;-61
2023/01/31 02:05:38;;;;;;;;;;;;;;;20.33;47.73;101009.13;5054914;28;3002;-61
2023/01/31 02:08:05;;;;;;;;;;;;;;;20.33;47.52;101008.41;5050806;28;2716;-61
2023/01/31 02:10:40;;;;;;;;;;;;;;;20.31;47.43;101006.16;5058397;28;2894;-61
2023/01/31 02:13:07;;;;;;;;;;;;;;;20.30;47.58;101010.44;5049687;28;2902;-61
2023/01/31 02:15:33;;;;;;;;;;;;;;;20.30;47.60;101016.94;5054005;28;2848;-61
2023/01/31 02:17:59;;;;;;;;;;;;;;;20.28;47.45;101019.69;5030520;28;2852;-61
2023/01/31 02:20:26;;;;;;;;;;;;;;;20.29;47.52;101020.44;5045551;28;2909;-61
2023/01/31 02:23:14;;;;;;;;;;;;;;;20.27;47.45;101028.97;5055977;28;2957;-61
2023/01/31 02:25:47;;;;;;;;;;;;;;;20.27;47.31;101028.97;5051626;28;3040;-61
2023/01/31 02:28:26;;;;;;;;;;;;;;;20.27;47.13;101034.72;5041075;28;2882;-61
2023/01/31 02:30:58;;;;;;;;;;;;;;;20.25;47.24;101049.75;5045108;28;3036;-61
2023/01/31 02:33:40;;;;;;;;;;;;;;;20.25;47.07;101046.13;5044361;28;2913;-61
2023/01/31 02:36:29;;;;;;;;;;;;;;;20.25;47.08;101043.25;5041605;28;2824;-61
2023/01/31 02:39:02;;;;;;;;;;;;;;;20.26;46.99;101051.22;5021301;28;2825;-61
2023/01/31 02:41:34;;;;;;;;;;;;;;;20.28;46.80;101053.47;5039234;28;2821;-61
2023/01/31 02:47:05;;;;;;;;;;;;;;;20.32;46.67;101053.69;5046509;28;2701;-61
2023/01/31 02:49:39;;;;;;;;;;;;;;;20.33;46.81;101048.66;5052027;28;2817;-61
2023/01/31 02:52:30;;;;;;;;;;;;;;;20.34;46.79;101053.78;5067944;28;2717;-61
2023/01/31 02:57:52;;;;;;;;;;;;;;;20.34;46.90;101059.53;5055226;28;2791;-62
2023/01/31 03:00:18;;;;;;;;;;;;;;;20.34;46.91;101056.66;5049635;28;3043;-62
2023/01/31 03:02:46;;;;;;;;;;;;;;;20.34;47.05;101055.88;5049038;28;2823;-62
2023/01/31 03:05:16;;;;;;;;;;;;;;;20.33;46.93;101054.41;5059663;28;2965;-62
2023/01/31 03:07:43;;;;;;;;;;;;;;;20.33;46.90;101054.41;5052679;28;2846;-62
2023/01/31 03:10:18;;;;;;;;;;;;;;;20.32;47.01;101058.66;5062405;28;2838;-62
2023/01/31 03:12:47;;;;;;;;;;;;;;;20.30;47.06;101056.44;5052374;28;2738;-62
2023/01/31 03:15:25;;;;;;;;;;;;;;;20.28;47.17;101047.72;5051756;28;2802;-62
2023/01/31 03:17:52;;;;;;;;;;;;;;;20.27;47.32;101046.22;5058513;28;2739;-62
2023/01/31 03:20:42;;;;;;;;;;;;;;;20.26;47.10;101050.50;5052771;28;3079;-62
2023/01/31 03:23:13;;;;;;;;;;;;;;;20.25;47.15;101049.75;5035035;28;2875;-62
2023/01/31 03:25:39;;;;;;;;;;;;;;;20.28;46.96;101053.47;5047220;28;1910;-62
2023/01/31 03:28:09;;;;;;;;;;;;;;;20.28;46.97;101056.34;5055941;28;2794;-61
2023/01/31 03:30:39;;;;;;;;;;;;;;;20.28;46.70;101059.97;5050287;28;2973;-61
2023/01/31 03:33:11;;;;;;;;;;;;;;;20.30;47.08;101067.94;5040280;28;2799;-61
2023/01/31 03:35:38;;;;;;;;;;;;;;;20.30;46.91;101065.06;5049484;28;2999;-61
2023/01/31 03:38:19;;;;;;;;;;;;;;;20.30;46.80;101076.56;5034294;28;2825;-60
2023/01/31 03:40:46;;;;;;;;;;;;;;;20.29;46.84;101066.44;5054629;28;2780;-60
2023/01/31 03:43:32;;;;;;;;;;;;;;;20.30;47.21;101085.22;5037040;28;2886;-60
2023/01/31 03:46:00;;;;;;;;;;;;;;;20.28;47.21;101064.97;5059464;28;3024;-60
2023/01/31 03:48:27;;;;;;;;;;;;;;;20.28;47.09;101079.34;5042217;28;2827;-60
2023/01/31 03:50:58;;;;;;;;;;;;;;;20.28;47.09;101085.84;5046315;28;2835;-60
2023/01/31 03:53:26;;;;;;;;;;;;;;;20.31;47.09;101086.69;5049340;28;2770;-60
2023/01/31 03:55:56;;;;;;;;;;;;;;;20.32;46.98;101087.44;5049599;28;2970;-60
2023/01/31 03:58:24;;;;;;;;;;;;;;;20.32;47.16;101088.19;5060067;28;2740;-60
2023/01/31 04:00:50;;;;;;;;;;;;;;;20.33;47.05;101095.41;5035197;28;2894;-60
2023/01/31 04:03:23;;;;;;;;;;;;;;;20.34;47.19;101105.56;5043151;28;2818;-60
2023/01/31 04:05:49;;;;;;;;;;;;;;;20.36;47.13;101099.88;5040667;28;2960;-61
2023/01/31 04:08:18;;;;;;;;;;;;;;;20.36;47.14;101102.75;5052177;28;2917;-61
2023/01/31 04:10:51;;;;;;;;;;;;;;;20.37;47.35;101107.13;5054400;28;2724;-60
2023/01/31 04:13:18;;;;;;;;;;;;;;;20.38;47.35;101102.84;5051379;28;2648;-60
2023/01/31 04:15:44;;;;;;;;;;;;;;;20.38;47.31;101096.38;5053042;28;2925;-60
2023/01/31 04:18:10;;;;;;;;;;;;;;;20.38;47.23;101102.84;5052084;28;2521;-60
2023/01/31 04:20:37;;;;;;;;;;;;;;;20.37;47.28;101101.38;5053732;28;2966;-61
2023/01/31 04:23:03;;;;;;;;;;;;;;;20.38;47.42;101113.63;5049751;28;2709;-60
2023/01/31 04:25:30;;;;;;;;;;;;;;;20.36;47.48;101111.38;5051907;28;2617;-60
2023/01/31 04:27:58;;;;;;;;;;;;;;;20.36;47.44;101110.63;5051624;28;2966;-60
2023/01/31 04:30:25;;;;;;;;;;;;;;;20.36;47.35;101102.00;5049604;28;2832;-60
2023/01/31 04:32:51;;;;;;;;;;;;;;;20.36;47.42;101108.50;5050328;28;2797;-61
2023/01/31 04:35:17;;;;;;;;;;;;;;;20.35;47.31;101104.16;5051451;28;2746;-61
2023/01/31 04:37:44;;;;;;;;;;;;;;;20.37;47.46;101107.13;5053493;28;2763;-61
2023/01/31 04:40:13;;;;;;;;;;;;;;;20.38;47.25;101116.50;5058462;28;2918;-61
2023/01/31 04:42:39;;;;;;;;;;;;;;;20.38;47.27;101128.75;5048668;28;2737;-60
2023/01/31 04:45:05;;;;;;;;;;;;;;;20.38;47.43;101125.88;5059714;28;2950;-61
2023/01/31 04:47:32;;;;;;;;;;;;;;;20.37;47.33;101135.91;5045021;28;2895;-60
2023/01/31 04:49:58;;;;;;;;;;;;;;;20.37;47.49;101135.91;5053037;28;2907;-61
2023/01/31 04:52:25;;;;;;;;;;;;;;;20.35;47.26;101137.94;5054467;28;2847;-61
2023/01/31 04:54:51;;;;;;;;;;;;;;;20.34;47.52;101137.19;5050318;28;2840;-61
2023/01/31 04:57:17;;;;;;;;;;;;;;;20.35;47.26;101141.53;5054898;28;2794;-61
2023/01/31 04:59:43;;;;;;;;;;;;;;;20.34;47.25;101137.19;5052731;28;2891;-61
2023/01/31 05:02:13;;;;;;;;;;;;;;;20.36;47.18;101136.53;5051229;28;3599;-61
2023/01/31 05:04:39;;;;;;;;;;;;;;;20.37;47.33;101144.53;5051559;28;2998;-60
2023/01/31 05:07:05;;;;;;;;;;;;;;;20.38;47.24;101148.88;5053618;28;2718;-61
2023/01/31 05:09:32;;;;;;;;;;;;;;;20.40;47.31;101146.09;5052450;28;2818;-60
2023/01/31 05:11:58;;;;;;;;;;;;;;;20.40;47.42;101134.59;5057003;28;2922;-60
2023/01/31 05:14:24;;;;;;;;;;;;;;;20.40;47.57;101133.88;5051282;28;2915;-61
2023/01/31 05:16:51;;;;;;;;;;;;;;;20.39;47.50;101127.38;5052809;28;2793;-61
2023/01/31 05:19:17;;;;;;;;;;;;;;;20.38;47.32;101131.63;5053908;28;2877;-61
2023/01/31 05:21:57;;;;;;;;;;;;;;;20.38;47.39;101143.13;5059181;28;2705;-60
2023/01/31 05:24:25;;;;;;;;;;;;;;;20.39;47.38;101146.75;5055447;28;2738;-60
2023/01/31 05:26:55;;;;;;;;;;;;;;;20.38;47.36;101148.13;5057107;28;3218;-60
2023/01/31 05:29:21;;;;;;;;;;;;;;;20.38;47.31;101148.13;5050056;28;2997;-60
2023/01/31 05:31:54;;;;;;;;;;;;;;;20.38;47.46;101151.00;5053899;28;2976;-60
2023/01/31 05:34:21;;;;;;;;;;;;;;;20.39;47.46;101156.13;5053311;28;2691;-61
2023/01/31 05:36:47;;;;;;;;;;;;;;;20.38;47.16;101154.63;5054854;28;2990;-61
2023/01/31 05:39:13;;;;;;;;;;;;;;;20.40;47.64;101151.13;5053132;28;3350;-61
2023/01/31 05:41:40;;;;;;;;;;;;;;;20.41;47.53;101161.22;5056445;28;2674;-60
2023/01/31 05:44:06;;;;;;;;;;;;;;;20.40;47.36;101156.88;5055420;28;2903;-61
2023/01/31 05:46:32;;;;;;;;;;;;;;;20.39;47.48;101150.38;5053595;28;2734;-60
2023/01/31 05:48:59;;;;;;;;;;;;;;;20.39;47.54;101143.88;5050745;28;3050;-61
2023/01/31 05:51:25;;;;;;;;;;;;;;;20.37;47.43;101153.16;5053777;28;3038;-61
2023/01/31 05:53:52;;;;;;;;;;;;;;;20.37;47.50;101158.91;5054388;28;2944;-60
2023/01/31 05:56:18;;;;;;;;;;;;;;;20.38;47.52;101160.38;5054619;28;2613;-61
2023/01/31 05:58:49;;;;;;;;;;;;;;;20.39;47.60;101161.88;5055305;28;2849;-60
2023/01/31 06:01:18;;;;;;;;;;;;;;;20.38;47.56;101166.13;5054320;28;2885;-60
2023/01/31 06:03:47;;;;;;;;;;;;;;;20.39;47.44;101167.63;5048977;28;3279;-61
2023/01/31 06:06:13;;;;;;;;;;;;;;;20.39;47.51;101167.63;5046826;28;2927;-61
2023/01/31 06:08:40;;;;;;;;;;;;;;;20.40;47.58;101163.38;5047857;28;2943;-61
2023/01/31 06:11:09;;;;;;;;;;;;;;;20.40;47.63;101166.25;5051205;28;2831;-61
2023/01/31 06:13:36;;;;;;;;;;;;;;;20.39;47.61;101176.28;5056358;28;2666;-61
2023/01/31 06:16:03;;;;;;;;;;;;;;;20.40;47.43;101174.13;5052689;28;2828;-61
2023/01/31 06:18:29;;;;;;;;;;;;;;;20.38;47.69;101177.63;5048481;28;2405;-61
2023/01/31 06:20:56;;;;;;;;;;;;;;;20.39;47.50;101187.03;5050439;28;2706;-61
2023/01/31 06:23:22;;;;;;;;;;;;;;;20.38;47.56;101183.38;5050025;28;2890;-61
2023/01/31 06:25:49;;;;;;;;;;;;;;;20.38;47.60;101200.66;5059673;28;2502;-61
2023/01/31 06:28:16;;;;;;;;;;;;;;;20.37;47.68;101193.41;5053556;28;3152;-61
2023/01/31 06:30:42;;;;;;;;;;;;;;;20.37;47.70;101193.41;5050062;28;2877;-61
2023/01/31 06:33:09;;;;;;;;;;;;;;;20.38;47.52;101186.25;5046554;28;3112;-60
2023/01/31 06:35:35;;;;;;;;;;;;;;;20.37;47.65;101199.16;5051039;28;3267;-61
2023/01/31 06:38:01;;;;;;;;;;;;;;;20.38;47.62;101194.91;5051808;28;2612;-60
2023/01/31 06:40:29;;;;;;;;;;;;;;;20.43;48.04;101195.84;5052944;28;2919;-60
2023/01/31 06:42:56;;;;;;;;;;;;;;;20.42;47.89;101189.34;5048811;28;3268;-60
2023/01/31 06:45:22;;;;;;;;;;;;;;;20.38;47.99;101200.66;5050116;28;2863;-60
2023/01/31 06:47:49;;;;;;;;;;;;;;;14.97;46.18;101206.22;5049375;28;2918;-60
2023/01/31 06:50:15;;;;;;;;;;;;;;;17.93;47.66;101188.28;5053517;28;2851;-64
2023/01/31 06:52:42;;;;;;;;;;;;;;;19.25;46.76;101185.25;5048996;28;2935;-65
2023/01/31 06:55:08;;;;;;;;;;;;;;;19.74;46.55;101192.94;5052868;28;2835;-64
2023/01/31 06:57:34;;;;;;;;;;;;;;;19.94;45.84;101199.06;5055051;28;1796;-64
2023/01/31 07:00:01;;;;;;;;;;;;;;;20.05;45.70;101190.34;5054745;28;2865;-64
2023/01/31 07:02:27;;;;;;;;;;;;;;;20.12;45.43;101202.91;5048404;28;3405;-64
2023/01/31 07:04:54;;;;;;;;;;;;;;;20.17;45.41;101203.84;5054309;28;2817;-64
2023/01/31 07:07:20;;;;;;;;;;;;;;;20.19;45.63;101183.84;5054621;28;2573;-64
2023/01/31 07:09:47;;;;;;;;;;;;;;;20.20;45.51;101173.81;5055245;28;2809;-64
2023/01/31 07:12:13;;;;;;;;;;;;;;;20.21;45.48;101164.56;5055262;28;2557;-64
2023/01/31 07:14:39;;;;;;;;;;;;;;;20.21;45.43;101181.81;5053234;28;2921;-65
2023/01/31 07:17:06;;;;;;;;;;;;;;;20.23;45.61;101186.94;5054852;28;2810;-65
2023/01/31 07:19:32;;;;;;;;;;;;;;;20.24;45.73;101197.03;5050117;28;2853;-68
2023/01/31 07:21:58;;;;;;;;;;;;;;;20.06;43.95;101200.44;5049126;28;2754;-66
2023/01/31 07:24:25;;;;;;;;;;;;;;;20.17;43.92;101198.09;5039328;28;4643;-66
2023/01/31 07:26:52;;;;;;;;;;;;;;;19.76;43.14;101193.06;5043360;28;2931;-67
2023/01/31 07:29:18;;;;;;;;;;;;;;;19.87;43.82;101195.84;5048216;28;2989;-65
2023/01/31 07:31:44;;;;;;;;;;;;;;;20.18;43.95;101183.09;5052991;28;3483;-63
2023/01/31 07:34:11;;;;;;;;;;;;;;;20.27;44.04;101178.50;5052892;28;2939;-65
2023/01/31 07:36:37;;;;;;;;;;;;;;;20.36;43.73;101179.66;5046189;28;2891;-66
2023/01/31 07:39:05;;;;;;;;;;;;;;;20.45;43.63;101182.31;5051730;28;3016;-66
2023/01/31 07:41:31;;;;;;;;;;;;;;;20.49;43.72;101181.78;5043094;28;3076;-67
2023/01/31 07:43:58;;;;;;;;;;;;;;;20.55;43.76;101184.97;5046441;28;3023;-66
2023/01/31 07:46:24;;;;;;;;;;;;;;;20.53;43.72;101176.25;5038901;28;2997;-66
2023/01/31 07:48:51;;;;;;;;;;;;;;;20.51;43.99;101179.00;5052964;28;3228;-65
2023/01/31 07:51:17;;;;;;;;;;;;;;;20.53;43.95;101172.63;5051003;28;3068;-66
2023/01/31 07:53:44;;;;;;;;;;;;;;;20.51;44.13;101173.25;5045913;28;3153;-65
2023/01/31 07:56:19;;;;;;;;;;;;;;;20.53;44.29;101179.13;5050998;28;3253;-65
2023/01/31 07:58:47;;;;;;;;;;;;;;;20.56;44.33;101179.97;5048811;28;2998;-65
2023/01/31 08:03:59;;;;;;;;;;;;;;;20.65;44.61;101176.88;5053740;28;3143;-68
2023/01/31 08:06:43;;;;;;;;;;;;;;;20.61;44.71;101170.91;5053524;28;2970;-67
2023/01/31 08:09:10;;;;;;;;;;;;;;;20.84;45.25;101175.66;5046220;28;2993;-67
2023/01/31 08:11:36;;;;;;;;;;;;;;;21.20;44.77;101164.44;5049635;28;3169;-69
2023/01/31 08:14:02;;;;;;;;;;;;;;;21.30;44.77;101162.03;5054332;28;3272;-69
2023/01/31 08:16:30;;;;;;;;;;;;;;;21.42;44.54;101159.00;5055893;28;2948;-67
2023/01/31 08:18:57;;;;;;;;;;;;;;;21.44;44.96;101161.22;5055913;28;2926;-69
2023/01/31 08:21:23;;;;;;;;;;;;;;;21.62;44.57;101156.31;5055748;28;2959;-70
2023/01/31 08:23:49;;;;;;;;;;;;;;;21.59;44.44;101157.63;5058800;28;2871;-68
2023/01/31 08:26:16;;;;;;;;;;;;;;;21.50;45.06;101150.00;5053998;28;3121;-70
2023/01/31 08:28:43;;;;;;;;;;;;;;;21.46;45.35;101146.91;5055366;28;2927;-69
2023/01/31 08:31:13;;;;;;;;;;;;;;;21.44;45.43;101141.06;5053891;28;2976;-69
2023/01/31 08:33:40;;;;;;;;;;;;;;;21.46;45.39;101139.03;5050784;28;3663;-71
2023/01/31 08:36:07;;;;;;;;;;;;;;;21.44;45.62;101135.28;5053563;28;1698;-70
2023/01/31 08:38:33;;;;;;;;;;;;;;;21.43;45.55;101139.59;5054224;28;1668;-69
2023/01/31 08:40:59;;;;;;;;;;;;;;;21.45;45.77;101139.69;5055156;28;1658;-69
2023/01/31 08:43:26;;;;;;;;;;;;;;;21.55;45.82;101128.59;5060877;28;3073;-68
2023/01/31 08:45:52;;;;;;;;;;;;;;;21.67;45.46;101139.94;5056720;28;2906;-69
2023/01/31 08:48:18;;;;;;;;;;;;;;;21.74;44.82;101136.69;5053988;28;3043;-66
2023/01/31 08:50:45;;;;;;;;;;;;;;;21.73;45.06;101135.19;5052980;28;3048;-67
2023/01/31 08:53:11;;;;;;;;;;;;;;;21.66;45.57;101127.69;5054123;28;2848;-68
2023/01/31 08:55:37;;;;;;;;;;;;;;;21.61;45.95;101131.03;5057605;28;2943;-68
2023/01/31 08:58:04;;;;;;;;;;;;;;;21.59;45.85;101117.28;5058509;28;2291;-68
2023/01/31 09:00:31;;;;;;;;;;;;;;;20.38;41.14;101134.50;5052855;28;3243;-67
2023/01/31 09:02:58;;;;;;;;;;;;;;;20.11;44.45;101123.03;5048799;28;3232;-69
2023/01/31 09:05:24;;;;;;;;;;;;;;;20.80;44.45;101123.66;5049020;28;3034;-69
2023/01/31 09:07:51;;;;;;;;;;;;;;;21.13;44.48;101125.22;5049295;28;3089;-72
2023/01/31 09:10:17;;;;;;;;;;;;;;;21.27;44.44;101122.25;5054975;28;3007;-70
2023/01/31 09:12:44;;;;;;;;;;;;;;;21.36;44.79;101111.88;5052772;28;3040;-65
2023/01/31 09:15:10;;;;;;;;;;;;;;;21.40;44.61;101115.69;5057358;28;3052;-66
2023/01/31 09:17:37;;;;;;;;;;;;;;;21.40;44.47;101107.06;5062917;28;3151;-68
2023/01/31 09:20:05;;;;;;;;;;;;;;;21.42;44.58;101109.28;5053509;28;3463;-65
2023/01/31 09:22:32;;;;;;;;;;;;;;;21.43;44.43;101113.66;5056749;28;3043;-65
2023/01/31 09:25:00;;;;;;;;;;;;;;;21.44;45.00;101098.59;5058708;28;2787;-68
2023/01/31 09:27:26;;;;;;;;;;;;;;;21.42;44.93;101098.50;5057993;28;3121;-67
2023/01/31 09:29:52;;;;;;;;;;;;;;;21.42;45.13;101097.78;5059182;28;3060;-67
2023/01/31 09:32:20;;;;;;;;;;;;;;;21.43;45.22;101093.50;5063612;28;2770;-70
2023/01/31 09:34:48;;;;;;;;;;;;;;;21.43;45.23;101099.97;5064690;28;2582;-68
2023/01/31 09:37:14;;;;;;;;;;;;;;;21.44;45.31;101094.97;5065114;28;2354;-66
2023/01/31 09:39:40;;;;;;;;;;;;;;;21.45;45.14;101097.19;5046816;28;3080;-67
2023/01/31 09:42:10;;;;;;;;;;;;;;;21.48;45.16;101098.03;5054092;28;3093;-65
2023/01/31 09:44:37;;;;;;;;;;;;;;;21.50;45.33;101095.97;5050582;28;3004;-74
2023/01/31 09:47:07;;;;;;;;;;;;;;;21.50;45.68;101092.38;5057726;28;3215;-69
2023/01/31 09:49:36;;;;;;;;;;;;;;;21.55;46.04;101082.50;5053383;28;2977;-69
2023/01/31 09:52:02;;;;;;;;;;;;;;;21.57;45.86;101085.47;5053964;28;3043;-69
2023/01/31 09:54:33;;;;;;;;;;;;;;;21.58;45.36;101086.97;5057866;28;2950;-65
2023/01/31 09:57:05;;;;;;;;;;;;;;;21.58;45.72;101081.22;5051808;28;3024;-67
2023/01/31 09:59:38;;;;;;;;;;;;;;;21.56;45.51;101078.25;5050956;28;2694;-65
2023/01/31 10:02:14;;;;;;;;;;;;;;;21.55;45.50;101068.09;5046952;28;3024;-66
2023/01/31 10:04:49;;;;;;;;;;;;;;;21.57;45.71;101064.56;5051835;28;3099;-64
2023/01/31 10:07:19;;;;;;;;;;;;;;;21.56;45.76;101060.94;5051268;28;2970;-67
2023/01/31 10:09:47;;;;;;;;;;;;;;;21.55;45.91;101062.34;5051669;28;3062;-66
2023/01/31 10:12:23;;;;;;;;;;;;;;;21.56;46.14;101055.19;5045688;28;3148;-66
2023/01/31 10:14:53;;;;;;;;;;;;;;;21.56;46.08;101049.44;5053740;28;3126;-65
2023/01/31 10:17:31;;;;;;;;;;;;;;;21.58;46.48;101058.16;5052470;28;3368;-65
2023/01/31 10:20:17;;;;;;;;;;;;;;;21.57;46.42;101053.78;5055501;28;3020;-68
2023/01/31 10:22:49;;;;;;;;;;;;;;;21.62;45.70;101052.56;5048198;28;3005;-68
2023/01/31 10:25:16;;;;;;;;;;;;;;;21.65;46.17;101039.00;5049004;28;3069;-67
2023/01/31 10:27:47;;;;;;;;;;;;;;;21.66;45.82;101023.94;5048678;28;2872;-67
2023/01/31 10:30:15;;;;;;;;;;;;;;;21.64;45.83;101020.94;5052145;28;3021;-68
2023/01/31 10:32:44;;;;;;;;;;;;;;;21.65;46.37;101027.47;5055809;28;3025;-71
2023/01/31 10:35:16;;;;;;;;;;;;;;;21.65;46.26;101015.97;5047025;28;2968;-70
2023/01/31 10:37:45;;;;;;;;;;;;;;;21.64;45.87;101014.44;5048464;28;3066;-66
2023/01/31 10:40:15;;;;;;;;;;;;;;;21.63;46.21;101007.22;5048438;28;3220;-68
2023/01/31 10:42:44;;;;;;;;;;;;;;;21.66;46.03;101017.44;5049241;28;3160;-68
2023/01/31 10:45:14;;;;;;;;;;;;;;;21.69;46.29;101005.34;5056834;28;2759;-69
2023/01/31 10:47:50;;;;;;;;;;;;;;;21.69;46.15;100999.56;5051123;28;3106;-67
2023/01/31 10:50:17;;;;;;;;;;;;;;;21.70;46.02;100989.53;5050487;28;3205;-66
2023/01/31 10:52:47;;;;;;;;;;;;;;;21.70;46.18;100980.88;5051537;28;3076;-70
2023/01/31 10:55:22;;;;;;;;;;;;;;;21.78;46.05;100976.84;5054203;28;3147;-66
2023/01/31 10:57:48;;;;;;;;;;;;;;;21.74;46.09;100978.16;5052939;28;2962;-68
2023/01/31 11:00:18;;;;;;;;;;;;;;;21.85;46.05;100969.94;5050514;28;3107;-68
2023/01/31 11:02:45;;;;;;;;;;;;;;;21.83;46.50;100972.72;5054224;28;3087;-67
2023/01/31 11:05:14;;;;;;;;;;;;;;;21.83;46.46;100955.44;5050397;28;3201;-67
2023/01/31 11:07:40;;;;;;;;;;;;;;;21.82;46.35;100954.72;5048573;28;3137;-69
2023/01/31 11:10:20;;;;;;;;;;;;;;;21.83;46.10;100950.44;5051760;28;3157;-69
2023/01/31 11:12:51;;;;;;;;;;;;;;;21.87;46.26;100953.47;5050875;28;3032;-67
2023/01/31 11:15:18;;;;;;;;;;;;;;;21.52;44.31;100945.50;5047827;28;2973;-67
2023/01/31 11:17:44;;;;;;;;;;;;;;;21.58;45.59;100937.13;5051368;28;3045;-68
2023/01/31 11:20:18;;;;;;;;;;;;;;;21.78;45.64;100916.31;5051094;28;2934;-69
2023/01/31 11:22:45;;;;;;;;;;;;;;;21.91;45.59;100924.06;5047028;28;3031;-69
2023/01/31 11:25:17;;;;;;;;;;;;;;;21.96;45.61;100914.19;5053422;28;3002;-69
2023/01/31 11:27:43;;;;;;;;;;;;;;;21.95;45.43;100904.06;5049490;28;2941;-68
2023/01/31 11:30:24;;;;;;;;;;;;;;;21.95;45.44;100895.41;5051221;28;3515;-70
2023/01/31 11:32:51;;;;;;;;;;;;;;;21.91;45.90;100898.13;5047511;28;2863;-72
2023/01/31 11:35:17;;;;;;;;;;;;;;;21.91;45.82;100898.88;5045380;28;3269;-71
2023/01/31 11:38:03;;;;;;;;;;;;;;;21.95;45.95;100881.75;5048608;28;3252;-72
2023/01/31 11:40:30;;;;;;;;;;;;;;;21.98;45.85;100887.59;5047066;28;3066;-72
2023/01/31 11:42:57;;;;;;;;;;;;;;;21.94;46.21;100870.84;5054858;28;3079;-69
2023/01/31 11:45:33;;;;;;;;;;;;;;;21.95;46.10;100864.44;5047706;28;3494;-69
2023/01/31 11:48:07;;;;;;;;;;;;;;;21.96;46.05;100854.38;5051372;28;3025;-68
2023/01/31 11:50:35;;;;;;;;;;;;;;;22.02;46.15;100850.28;5055530;28;3135;-73
2023/01/31 11:53:02;;;;;;;;;;;;;;;22.05;46.00;100843.91;5051407;28;3089;-73
2023/01/31 11:55:36;;;;;;;;;;;;;;;22.04;45.71;100830.16;5052328;28;3357;-72
2023/01/31 11:58:03;;;;;;;;;;;;;;;22.00;46.15;100833.63;5057289;28;3031;-72
2023/01/31 12:00:30;;;;;;;;;;;;;;;22.02;46.27;100832.97;5057137;28;3216;-75
2023/01/31 12:03:06;;;;;;;;;;;;;;;22.02;46.18;100816.41;5054708;28;2930;-74
2023/01/31 12:05:35;;;;;;;;;;;;;;;22.03;46.46;100805.59;5053107;28;3211;-73
2023/01/31 12:08:01;;;;;;;;;;;;;;;22.01;46.40;100797.59;5055922;28;3164;-71
2023/01/31 12:10:32;;;;;;;;;;;;;;;22.06;45.97;100801.38;5058074;28;2883;-70
2023/01/31 12:13:03;;;;;;;;;;;;;;;22.07;46.12;100792.09;5055613;28;2930;-71
2023/01/31 12:15:59;;;;;;;;;;;;;;;22.03;46.39;100789.03;5043794;28;3350;-72
2023/01/31 12:18:32;;;;;;;;;;;;;;;22.04;46.29;100767.47;5048580;28;3069;-75
2023/01/31 12:21:07;;;;;;;;;;;;;;;22.03;46.57;100771.75;5051671;28;3199;-77
2023/01/31 12:23:38;;;;;;;;;;;;;;;22.06;46.25;100770.44;5054974;28;4002;-76
2023/01/31 12:26:07;;;;;;;;;;;;;;;22.16;46.27;100764.31;5053266;28;3216;-71
2023/01/31 12:28:36;;;;;;;;;;;;;;;22.18;45.90;100768.00;5053730;28;3109;-74
2023/01/31 12:31:09;;;;;;;;;;;;;;;22.20;46.04;100749.31;5055521;28;4744;-78
2023/01/31 12:33:55;;;;;;;;;;;;;;;22.25;45.80;100745.19;5056283;28;3007;-74
2023/01/31 12:36:31;;;;;;;;;;;;;;;22.29;46.12;100733.81;5059158;28;3012;-72
2023/01/31 12:39:09;;;;;;;;;;;;;;;22.32;46.09;100744.72;5061852;28;3011;-71
2023/01/31 12:41:59;;;;;;;;;;;;;;;22.32;45.96;100729.56;5068425;28;3074;-73
2023/01/31 12:44:36;;;;;;;;;;;;;;;22.31;46.15;100725.97;5052600;28;4572;-70
2023/01/31 12:47:17;;;;;;;;;;;;;;;22.21;45.93;100721.94;5057590;28;3380;-72
2023/01/31 12:49:57;;;;;;;;;;;;;;;22.20;46.15;100720.47;5053795;28;4623;-75
2023/01/31 12:52:26;;;;;;;;;;;;;;;22.15;46.42;100703.00;5059265;28;3050;-75
2023/01/31 12:54:52;;;;;;;;;;;;;;;22.12;46.30;100715.13;5059807;28;2930;-73
2023/01/31 12:57:31;;;;;;;;;;;;;;;22.13;46.46;100697.16;5055525;28;2625;-74
2023/01/31 13:00:16;;;;;;;;;;;;;;;22.17;46.20;100705.22;5058553;28;2559;-71
2023/01/31 13:03:01;;;;;;;;;;;;;;;22.21;46.41;100693.09;5051642;28;2816;-72
2023/01/31 13:05:29;;;;;;;;;;;;;;;22.24;46.33;100697.53;5060385;28;2733;-73